sensor_id;sensor_type;location;lat;lon;timestamp;temperature;humidity
27567;DHT22;15006;48.584;9.186;2023-03-01T00:01:25;-3.50;79.30
27567;DHT22;15006;48.584;9.186;2023-03-01T00:03:56;-3.50;79.30
27567;DHT22;15006;48.584;9.186;2023-03-01T00:06:26;-3.60;79.30
27567;DHT22;15006;48.584;9.186;2023-03-01T00:08:55;-3.70;79.50
27567;DHT22;15006;48.584;9.186;2023-03-01T00:11:26;-3.70;79.70
27567;DHT22;15006;48.584;9.186;2023-03-01T00:13:56;-3.80;79.70
27567;DHT22;15006;48.584;9.186;2023-03-01T00:16:29;-3.80;79.90
27567;DHT22;15006;48.584;9.186;2023-03-01T00:19:00;-3.80;80.00
27567;DHT22;15006;48.584;9.186;2023-03-01T00:21:34;-3.90;80.00
27567;DHT22;15006;48.584;9.186;2023-03-01T00:24:13;-3.90;79.90
27567;DHT22;15006;48.584;9.186;2023-03-01T00:26:48;-4.00;79.70
27567;DHT22;15006;48.584;9.186;2023-03-01T00:29:27;-4.00;79.90
27567;DHT22;15006;48.584;9.186;2023-03-01T00:31:54;-4.10;79.90
27567;DHT22;15006;48.584;9.186;2023-03-01T00:34:22;-4.10;80.10
27567;DHT22;15006;48.584;9.186;2023-03-01T00:36:50;-4.20;80.10
27567;DHT22;15006;48.584;9.186;2023-03-01T00:39:17;-4.20;80.20
27567;DHT22;15006;48.584;9.186;2023-03-01T00:41:47;-4.30;80.30
27567;DHT22;15006;48.584;9.186;2023-03-01T00:44:22;-4.30;80.30
27567;DHT22;15006;48.584;9.186;2023-03-01T00:46:50;-4.40;80.40
27567;DHT22;15006;48.584;9.186;2023-03-01T00:49:17;-4.50;80.30
27567;DHT22;15006;48.584;9.186;2023-03-01T00:51:44;-4.50;80.20
27567;DHT22;15006;48.584;9.186;2023-03-01T00:54:12;-4.60;80.30
27567;DHT22;15006;48.584;9.186;2023-03-01T00:56:39;-4.70;80.40
27567;DHT22;15006;48.584;9.186;2023-03-01T00:59:05;-4.70;80.30
27567;DHT22;15006;48.584;9.186;2023-03-01T01:01:32;-4.80;80.40
27567;DHT22;15006;48.584;9.186;2023-03-01T01:04:06;-4.90;80.50
27567;DHT22;15006;48.584;9.186;2023-03-01T01:06:37;-4.90;80.80
27567;DHT22;15006;48.584;9.186;2023-03-01T01:09:12;-4.90;81.10
27567;DHT22;15006;48.584;9.186;2023-03-01T01:11:47;-5.00;81.40
27567;DHT22;15006;48.584;9.186;2023-03-01T01:14:16;-5.10;81.60
27567;DHT22;15006;48.584;9.186;2023-03-01T01:16:43;-5.10;82.10
27567;DHT22;15006;48.584;9.186;2023-03-01T01:19:10;-5.10;82.60
27567;DHT22;15006;48.584;9.186;2023-03-01T01:21:37;-5.10;83.00
27567;DHT22;15006;48.584;9.186;2023-03-01T01:24:04;-5.10;84.10
27567;DHT22;15006;48.584;9.186;2023-03-01T01:26:33;-5.10;83.80
27567;DHT22;15006;48.584;9.186;2023-03-01T01:29:00;-5.00;84.00
27567;DHT22;15006;48.584;9.186;2023-03-01T01:31:28;-5.00;84.00
27567;DHT22;15006;48.584;9.186;2023-03-01T01:33:55;-5.00;84.10
27567;DHT22;15006;48.584;9.186;2023-03-01T01:36:22;-4.90;84.20
27567;DHT22;15006;48.584;9.186;2023-03-01T01:38:48;-4.90;84.40
27567;DHT22;15006;48.584;9.186;2023-03-01T01:41:14;-4.80;84.60
27567;DHT22;15006;48.584;9.186;2023-03-01T01:43:46;-4.80;84.80
27567;DHT22;15006;48.584;9.186;2023-03-01T01:46:30;-4.70;85.20
27567;DHT22;15006;48.584;9.186;2023-03-01T01:49:18;-4.60;85.20
27567;DHT22;15006;48.584;9.186;2023-03-01T01:51:49;-4.50;85.40
27567;DHT22;15006;48.584;9.186;2023-03-01T01:54:23;-4.40;85.70
27567;DHT22;15006;48.584;9.186;2023-03-01T01:57:02;-4.40;85.90
27567;DHT22;15006;48.584;9.186;2023-03-01T01:59:31;-4.30;85.90
27567;DHT22;15006;48.584;9.186;2023-03-01T02:02:02;-4.10;86.00
27567;DHT22;15006;48.584;9.186;2023-03-01T02:04:32;-4.00;86.00
27567;DHT22;15006;48.584;9.186;2023-03-01T02:07:14;-3.90;86.00
27567;DHT22;15006;48.584;9.186;2023-03-01T02:09:46;-3.90;85.80
27567;DHT22;15006;48.584;9.186;2023-03-01T02:12:15;-3.70;85.90
27567;DHT22;15006;48.584;9.186;2023-03-01T02:14:43;-3.70;85.80
27567;DHT22;15006;48.584;9.186;2023-03-01T02:17:11;-3.60;85.60
27567;DHT22;15006;48.584;9.186;2023-03-01T02:22:25;-3.40;85.00
27567;DHT22;15006;48.584;9.186;2023-03-01T02:28:35;-3.30;84.70
27567;DHT22;15006;48.584;9.186;2023-03-01T02:30:46;-3.20;84.90
27567;DHT22;15006;48.584;9.186;2023-03-01T02:33:35;-3.10;84.90
27567;DHT22;15006;48.584;9.186;2023-03-01T02:36:12;-3.10;84.60
27567;DHT22;15006;48.584;9.186;2023-03-01T02:38:42;-3.00;84.20
27567;DHT22;15006;48.584;9.186;2023-03-01T02:41:08;-3.00;84.50
27567;DHT22;15006;48.584;9.186;2023-03-01T02:43:37;-2.90;84.60
27567;DHT22;15006;48.584;9.186;2023-03-01T02:46:12;-2.90;84.40
27567;DHT22;15006;48.584;9.186;2023-03-01T02:48:43;-2.90;83.90
27567;DHT22;15006;48.584;9.186;2023-03-01T02:54:25;-2.80;83.10
27567;DHT22;15006;48.584;9.186;2023-03-01T02:56:53;-2.70;83.80
27567;DHT22;15006;48.584;9.186;2023-03-01T02:59:22;-2.70;83.90
27567;DHT22;15006;48.584;9.186;2023-03-01T03:01:50;-2.70;83.60
27567;DHT22;15006;48.584;9.186;2023-03-01T03:04:18;-2.70;83.60
27567;DHT22;15006;48.584;9.186;2023-03-01T03:06:49;-2.60;83.70
27567;DHT22;15006;48.584;9.186;2023-03-01T03:09:17;-2.60;83.70
27567;DHT22;15006;48.584;9.186;2023-03-01T03:11:43;-2.60;83.70
27567;DHT22;15006;48.584;9.186;2023-03-01T03:14:12;-2.60;83.80
27567;DHT22;15006;48.584;9.186;2023-03-01T03:16:44;-2.50;83.60
27567;DHT22;15006;48.584;9.186;2023-03-01T03:19:12;-2.50;83.40
27567;DHT22;15006;48.584;9.186;2023-03-01T03:21:38;-2.50;83.60
27567;DHT22;15006;48.584;9.186;2023-03-01T03:24:04;-2.50;83.60
27567;DHT22;15006;48.584;9.186;2023-03-01T03:26:31;-2.50;83.40
27567;DHT22;15006;48.584;9.186;2023-03-01T03:28:57;-2.50;83.50
27567;DHT22;15006;48.584;9.186;2023-03-01T03:31:23;-2.50;83.50
27567;DHT22;15006;48.584;9.186;2023-03-01T03:33:49;-2.50;83.50
27567;DHT22;15006;48.584;9.186;2023-03-01T03:36:19;-2.50;83.50
27567;DHT22;15006;48.584;9.186;2023-03-01T03:38:47;-2.50;83.40
27567;DHT22;15006;48.584;9.186;2023-03-01T03:41:15;-2.40;83.60
27567;DHT22;15006;48.584;9.186;2023-03-01T03:43:42;-2.40;83.60
27567;DHT22;15006;48.584;9.186;2023-03-01T03:46:10;-2.40;83.60
27567;DHT22;15006;48.584;9.186;2023-03-01T03:48:42;-2.40;83.50
27567;DHT22;15006;48.584;9.186;2023-03-01T03:51:11;-2.30;83.10
27567;DHT22;15006;48.584;9.186;2023-03-01T03:53:38;-2.40;83.20
27567;DHT22;15006;48.584;9.186;2023-03-01T03:56:05;-2.40;83.10
27567;DHT22;15006;48.584;9.186;2023-03-01T03:58:31;-2.30;83.00
27567;DHT22;15006;48.584;9.186;2023-03-01T04:00:57;-2.40;82.90
27567;DHT22;15006;48.584;9.186;2023-03-01T04:03:25;-2.40;82.80
27567;DHT22;15006;48.584;9.186;2023-03-01T04:05:52;-2.40;82.70
27567;DHT22;15006;48.584;9.186;2023-03-01T04:08:22;-2.40;82.80
27567;DHT22;15006;48.584;9.186;2023-03-01T04:10:51;-2.40;82.40
27567;DHT22;15006;48.584;9.186;2023-03-01T04:13:22;-2.40;82.50
27567;DHT22;15006;48.584;9.186;2023-03-01T04:15:49;-2.40;82.40
27567;DHT22;15006;48.584;9.186;2023-03-01T04:18:18;-2.40;82.70
27567;DHT22;15006;48.584;9.186;2023-03-01T04:20:45;-2.30;82.70
27567;DHT22;15006;48.584;9.186;2023-03-01T04:23:17;-2.40;82.70
27567;DHT22;15006;48.584;9.186;2023-03-01T04:25:51;-2.40;82.50
27567;DHT22;15006;48.584;9.186;2023-03-01T04:28:40;-2.40;82.50
27567;DHT22;15006;48.584;9.186;2023-03-01T04:31:14;-2.40;81.70
27567;DHT22;15006;48.584;9.186;2023-03-01T04:33:48;-2.30;81.10
27567;DHT22;15006;48.584;9.186;2023-03-01T04:36:20;-2.30;82.70
27567;DHT22;15006;48.584;9.186;2023-03-01T04:38:48;-2.30;83.00
27567;DHT22;15006;48.584;9.186;2023-03-01T04:41:16;-2.30;82.90
27567;DHT22;15006;48.584;9.186;2023-03-01T04:43:44;-2.30;83.60
27567;DHT22;15006;48.584;9.186;2023-03-01T04:46:13;-2.30;83.60
27567;DHT22;15006;48.584;9.186;2023-03-01T04:52:22;-2.30;81.70
27567;DHT22;15006;48.584;9.186;2023-03-01T04:54:49;-2.30;82.80
27567;DHT22;15006;48.584;9.186;2023-03-01T04:57:15;-2.30;82.80
27567;DHT22;15006;48.584;9.186;2023-03-01T04:59:41;-2.30;82.70
27567;DHT22;15006;48.584;9.186;2023-03-01T05:02:07;-2.30;82.70
27567;DHT22;15006;48.584;9.186;2023-03-01T05:04:33;-2.30;82.70
27567;DHT22;15006;48.584;9.186;2023-03-01T05:06:59;-2.30;82.60
27567;DHT22;15006;48.584;9.186;2023-03-01T05:09:25;-2.30;82.60
27567;DHT22;15006;48.584;9.186;2023-03-01T05:11:51;-2.30;82.70
27567;DHT22;15006;48.584;9.186;2023-03-01T05:14:17;-2.30;82.70
27567;DHT22;15006;48.584;9.186;2023-03-01T05:16:43;-2.30;82.60
27567;DHT22;15006;48.584;9.186;2023-03-01T05:19:09;-2.30;82.50
27567;DHT22;15006;48.584;9.186;2023-03-01T05:21:42;-2.30;82.60
27567;DHT22;15006;48.584;9.186;2023-03-01T05:24:28;-2.30;82.40
27567;DHT22;15006;48.584;9.186;2023-03-01T05:26:55;-2.20;82.50
27567;DHT22;15006;48.584;9.186;2023-03-01T05:29:25;-2.30;82.60
27567;DHT22;15006;48.584;9.186;2023-03-01T05:31:59;-2.30;82.50
27567;DHT22;15006;48.584;9.186;2023-03-01T05:34:34;-2.30;82.20
27567;DHT22;15006;48.584;9.186;2023-03-01T05:37:02;-2.30;82.10
27567;DHT22;15006;48.584;9.186;2023-03-01T05:39:29;-2.30;82.60
27567;DHT22;15006;48.584;9.186;2023-03-01T05:41:59;-2.30;82.50
27567;DHT22;15006;48.584;9.186;2023-03-01T05:44:28;-2.30;82.50
27567;DHT22;15006;48.584;9.186;2023-03-01T05:46:54;-2.30;82.50
27567;DHT22;15006;48.584;9.186;2023-03-01T05:49:21;-2.30;82.70
27567;DHT22;15006;48.584;9.186;2023-03-01T05:51:51;-2.30;82.60
27567;DHT22;15006;48.584;9.186;2023-03-01T05:54:19;-2.30;82.50
27567;DHT22;15006;48.584;9.186;2023-03-01T05:56:46;-2.20;82.50
27567;DHT22;15006;48.584;9.186;2023-03-01T05:59:12;-2.20;82.60
27567;DHT22;15006;48.584;9.186;2023-03-01T06:01:39;-2.20;82.40
27567;DHT22;15006;48.584;9.186;2023-03-01T06:04:05;-2.20;82.50
27567;DHT22;15006;48.584;9.186;2023-03-01T06:06:36;-2.20;82.40
27567;DHT22;15006;48.584;9.186;2023-03-01T06:09:06;-2.20;82.30
27567;DHT22;15006;48.584;9.186;2023-03-01T06:11:35;-2.30;82.50
27567;DHT22;15006;48.584;9.186;2023-03-01T06:14:02;-2.30;82.50
27567;DHT22;15006;48.584;9.186;2023-03-01T06:16:29;-2.20;82.60
27567;DHT22;15006;48.584;9.186;2023-03-01T06:18:55;-2.20;82.50
27567;DHT22;15006;48.584;9.186;2023-03-01T06:21:21;-2.20;82.60
27567;DHT22;15006;48.584;9.186;2023-03-01T06:23:47;-2.20;82.60
27567;DHT22;15006;48.584;9.186;2023-03-01T06:26:13;-2.20;82.60
27567;DHT22;15006;48.584;9.186;2023-03-01T06:28:38;-2.20;82.60
27567;DHT22;15006;48.584;9.186;2023-03-01T06:31:04;-2.10;82.60
27567;DHT22;15006;48.584;9.186;2023-03-01T06:33:34;-2.10;82.40
27567;DHT22;15006;48.584;9.186;2023-03-01T06:36:00;-2.10;82.30
27567;DHT22;15006;48.584;9.186;2023-03-01T06:38:26;-2.20;82.00
27567;DHT22;15006;48.584;9.186;2023-03-01T06:40:53;-2.20;81.90
27567;DHT22;15006;48.584;9.186;2023-03-01T06:43:20;-2.20;81.80
27567;DHT22;15006;48.584;9.186;2023-03-01T06:45:47;-2.20;81.80
27567;DHT22;15006;48.584;9.186;2023-03-01T06:48:13;-2.20;81.80
27567;DHT22;15006;48.584;9.186;2023-03-01T06:50:39;-2.20;81.90
27567;DHT22;15006;48.584;9.186;2023-03-01T06:53:05;-2.30;82.00
27567;DHT22;15006;48.584;9.186;2023-03-01T06:55:32;-2.30;82.10
27567;DHT22;15006;48.584;9.186;2023-03-01T06:57:59;-2.30;82.90
27567;DHT22;15006;48.584;9.186;2023-03-01T07:00:27;-2.30;82.30
27567;DHT22;15006;48.584;9.186;2023-03-01T07:02:54;-2.30;82.50
27567;DHT22;15006;48.584;9.186;2023-03-01T07:05:20;-2.30;82.70
27567;DHT22;15006;48.584;9.186;2023-03-01T07:07:46;-2.30;83.60
27567;DHT22;15006;48.584;9.186;2023-03-01T07:10:12;-2.30;82.90
27567;DHT22;15006;48.584;9.186;2023-03-01T07:12:38;-2.20;83.00
27567;DHT22;15006;48.584;9.186;2023-03-01T07:15:05;-2.20;83.10
27567;DHT22;15006;48.584;9.186;2023-03-01T07:17:31;-2.20;83.10
27567;DHT22;15006;48.584;9.186;2023-03-01T07:19:57;-2.20;83.20
27567;DHT22;15006;48.584;9.186;2023-03-01T07:22:23;-2.10;83.30
27567;DHT22;15006;48.584;9.186;2023-03-01T07:24:49;-2.10;83.30
27567;DHT22;15006;48.584;9.186;2023-03-01T07:27:15;-2.10;83.50
27567;DHT22;15006;48.584;9.186;2023-03-01T07:29:41;-2.00;83.60
27567;DHT22;15006;48.584;9.186;2023-03-01T07:32:07;-2.00;83.60
27567;DHT22;15006;48.584;9.186;2023-03-01T07:34:33;-1.90;83.70
27567;DHT22;15006;48.584;9.186;2023-03-01T07:36:59;-1.80;83.60
27567;DHT22;15006;48.584;9.186;2023-03-01T07:39:25;-1.90;83.40
27567;DHT22;15006;48.584;9.186;2023-03-01T07:41:51;-1.80;83.50
27567;DHT22;15006;48.584;9.186;2023-03-01T07:44:17;-1.70;83.60
27567;DHT22;15006;48.584;9.186;2023-03-01T07:46:44;-1.70;83.60
27567;DHT22;15006;48.584;9.186;2023-03-01T07:49:10;-1.60;83.70
27567;DHT22;15006;48.584;9.186;2023-03-01T07:51:36;-1.60;83.60
27567;DHT22;15006;48.584;9.186;2023-03-01T07:54:02;-1.50;83.60
27567;DHT22;15006;48.584;9.186;2023-03-01T07:56:28;-1.50;83.50
27567;DHT22;15006;48.584;9.186;2023-03-01T07:58:54;-1.40;83.50
27567;DHT22;15006;48.584;9.186;2023-03-01T08:01:21;-1.30;83.40
27567;DHT22;15006;48.584;9.186;2023-03-01T08:03:48;-1.20;83.30
27567;DHT22;15006;48.584;9.186;2023-03-01T08:06:15;-1.20;83.00
27567;DHT22;15006;48.584;9.186;2023-03-01T08:08:42;-1.10;82.70
27567;DHT22;15006;48.584;9.186;2023-03-01T08:11:12;-1.10;82.60
27567;DHT22;15006;48.584;9.186;2023-03-01T08:13:39;-1.00;82.40
27567;DHT22;15006;48.584;9.186;2023-03-01T08:16:07;-1.00;82.40
27567;DHT22;15006;48.584;9.186;2023-03-01T08:18:37;-0.90;82.40
27567;DHT22;15006;48.584;9.186;2023-03-01T08:21:05;-0.90;82.40
27567;DHT22;15006;48.584;9.186;2023-03-01T08:23:35;-0.80;82.20
27567;DHT22;15006;48.584;9.186;2023-03-01T08:26:16;-0.70;82.10
27567;DHT22;15006;48.584;9.186;2023-03-01T08:28:44;-0.70;81.30
27567;DHT22;15006;48.584;9.186;2023-03-01T08:31:21;-0.60;82.00
27567;DHT22;15006;48.584;9.186;2023-03-01T08:33:51;-0.60;80.90
27567;DHT22;15006;48.584;9.186;2023-03-01T08:36:33;-0.50;81.60
27567;DHT22;15006;48.584;9.186;2023-03-01T08:39:01;-0.50;81.10
27567;DHT22;15006;48.584;9.186;2023-03-01T08:41:29;-0.40;81.50
27567;DHT22;15006;48.584;9.186;2023-03-01T08:43:56;-0.30;81.60
27567;DHT22;15006;48.584;9.186;2023-03-01T08:46:32;-0.30;81.30
27567;DHT22;15006;48.584;9.186;2023-03-01T08:49:10;-0.20;81.10
27567;DHT22;15006;48.584;9.186;2023-03-01T08:51:38;-0.10;80.10
27567;DHT22;15006;48.584;9.186;2023-03-01T08:54:12;0.00;81.10
27567;DHT22;15006;48.584;9.186;2023-03-01T08:56:48;0.10;81.00
27567;DHT22;15006;48.584;9.186;2023-03-01T08:59:15;0.20;80.90
27567;DHT22;15006;48.584;9.186;2023-03-01T09:01:42;0.20;80.40
27567;DHT22;15006;48.584;9.186;2023-03-01T09:04:12;0.30;80.10
27567;DHT22;15006;48.584;9.186;2023-03-01T09:06:38;0.40;79.90
27567;DHT22;15006;48.584;9.186;2023-03-01T09:09:05;0.50;79.70
27567;DHT22;15006;48.584;9.186;2023-03-01T09:11:31;0.50;79.20
27567;DHT22;15006;48.584;9.186;2023-03-01T09:13:58;0.60;79.30
27567;DHT22;15006;48.584;9.186;2023-03-01T09:16:24;0.60;79.00
27567;DHT22;15006;48.584;9.186;2023-03-01T09:18:53;0.70;78.60
27567;DHT22;15006;48.584;9.186;2023-03-01T09:21:21;0.80;78.30
27567;DHT22;15006;48.584;9.186;2023-03-01T09:23:49;0.80;78.20
27567;DHT22;15006;48.584;9.186;2023-03-01T09:26:20;0.90;78.10
27567;DHT22;15006;48.584;9.186;2023-03-01T09:28:49;0.90;77.70
27567;DHT22;15006;48.584;9.186;2023-03-01T09:31:18;1.00;77.80
27567;DHT22;15006;48.584;9.186;2023-03-01T09:33:47;1.00;77.70
27567;DHT22;15006;48.584;9.186;2023-03-01T09:36:19;1.10;77.50
27567;DHT22;15006;48.584;9.186;2023-03-01T09:38:46;1.20;76.90
27567;DHT22;15006;48.584;9.186;2023-03-01T09:42:12;1.30;77.40
27567;DHT22;15006;48.584;9.186;2023-03-01T09:46:57;1.40;75.90
27567;DHT22;15006;48.584;9.186;2023-03-01T09:49:27;1.50;76.90
27567;DHT22;15006;48.584;9.186;2023-03-01T09:52:23;1.60;76.50
27567;DHT22;15006;48.584;9.186;2023-03-01T09:54:54;1.60;74.60
27567;DHT22;15006;48.584;9.186;2023-03-01T09:57:33;1.70;77.10
27567;DHT22;15006;48.584;9.186;2023-03-01T10:06:04;1.90;73.70
27567;DHT22;15006;48.584;9.186;2023-03-01T10:08:56;2.00;76.10
27567;DHT22;15006;48.584;9.186;2023-03-01T10:11:47;2.10;75.40
27567;DHT22;15006;48.584;9.186;2023-03-01T10:17:01;2.30;74.80
27567;DHT22;15006;48.584;9.186;2023-03-01T10:19:38;2.40;74.10
27567;DHT22;15006;48.584;9.186;2023-03-01T10:22:22;2.50;76.30
27567;DHT22;15006;48.584;9.186;2023-03-01T10:24:54;2.50;73.70
27567;DHT22;15006;48.584;9.186;2023-03-01T10:27:40;2.60;75.30
27567;DHT22;15006;48.584;9.186;2023-03-01T10:30:35;2.60;74.60
27567;DHT22;15006;48.584;9.186;2023-03-01T10:33:26;2.70;72.00
27567;DHT22;15006;48.584;9.186;2023-03-01T10:35:54;2.80;72.00
27567;DHT22;15006;48.584;9.186;2023-03-01T10:38:21;2.80;74.80
27567;DHT22;15006;48.584;9.186;2023-03-01T10:41:04;2.90;74.20
27567;DHT22;15006;48.584;9.186;2023-03-01T10:43:48;3.00;72.00
27567;DHT22;15006;48.584;9.186;2023-03-01T10:46:37;3.20;72.30
27567;DHT22;15006;48.584;9.186;2023-03-01T10:49:10;3.40;74.00
27567;DHT22;15006;48.584;9.186;2023-03-01T10:51:43;3.80;78.20
27567;DHT22;15006;48.584;9.186;2023-03-01T10:56:56;4.90;79.50
27567;DHT22;15006;48.584;9.186;2023-03-01T11:04:35;6.90;76.20
27567;DHT22;15006;48.584;9.186;2023-03-01T11:07:02;7.50;79.90
27567;DHT22;15006;48.584;9.186;2023-03-01T11:09:33;8.20;77.80
27567;DHT22;15006;48.584;9.186;2023-03-01T11:12:13;8.70;73.30
27567;DHT22;15006;48.584;9.186;2023-03-01T11:14:51;9.30;70.10
27567;DHT22;15006;48.584;9.186;2023-03-01T11:22:51;10.90;64.30
27567;DHT22;15006;48.584;9.186;2023-03-01T11:25:44;11.30;66.40
27567;DHT22;15006;48.584;9.186;2023-03-01T11:28:17;11.80;62.10
27567;DHT22;15006;48.584;9.186;2023-03-01T11:31:00;12.20;65.70
27567;DHT22;15006;48.584;9.186;2023-03-01T11:36:52;12.90;59.90
27567;DHT22;15006;48.584;9.186;2023-03-01T11:39:37;13.10;57.40
27567;DHT22;15006;48.584;9.186;2023-03-01T11:42:35;13.40;60.30
27567;DHT22;15006;48.584;9.186;2023-03-01T11:45:11;13.70;56.60
27567;DHT22;15006;48.584;9.186;2023-03-01T11:50:16;14.10;59.90
27567;DHT22;15006;48.584;9.186;2023-03-01T12:11:16;15.50;53.30
27567;DHT22;15006;48.584;9.186;2023-03-01T12:34:43;15.60;50.60
27567;DHT22;15006;48.584;9.186;2023-03-01T12:41:31;15.90;53.10
27567;DHT22;15006;48.584;9.186;2023-03-01T12:53:35;16.20;50.80
27567;DHT22;15006;48.584;9.186;2023-03-01T12:56:10;16.20;49.60
27567;DHT22;15006;48.584;9.186;2023-03-01T12:59:07;16.20;49.90
27567;DHT22;15006;48.584;9.186;2023-03-01T13:02:12;16.20;48.20
27567;DHT22;15006;48.584;9.186;2023-03-01T13:05:06;16.30;49.60
27567;DHT22;15006;48.584;9.186;2023-03-01T13:08:02;16.40;47.30
27567;DHT22;15006;48.584;9.186;2023-03-01T13:10:49;16.60;51.80
27567;DHT22;15006;48.584;9.186;2023-03-01T13:13:24;16.60;47.80
27567;DHT22;15006;48.584;9.186;2023-03-01T13:15:51;16.70;47.40
27567;DHT22;15006;48.584;9.186;2023-03-01T13:20:50;16.80;50.70
27567;DHT22;15006;48.584;9.186;2023-03-01T13:26:15;17.20;48.80
27567;DHT22;15006;48.584;9.186;2023-03-01T13:28:52;17.40;46.10
27567;DHT22;15006;48.584;9.186;2023-03-01T13:33:58;17.70;49.70
27567;DHT22;15006;48.584;9.186;2023-03-01T13:44:33;17.90;43.70
27567;DHT22;15006;48.584;9.186;2023-03-01T13:49:58;17.90;45.50
27567;DHT22;15006;48.584;9.186;2023-03-01T13:52:36;17.80;43.90
27567;DHT22;15006;48.584;9.186;2023-03-01T13:57:43;17.90;44.10
27567;DHT22;15006;48.584;9.186;2023-03-01T14:00:38;17.90;46.00
27567;DHT22;15006;48.584;9.186;2023-03-01T14:05:36;18.00;45.60
27567;DHT22;15006;48.584;9.186;2023-03-01T14:08:04;18.10;46.90
27567;DHT22;15006;48.584;9.186;2023-03-01T14:10:49;18.10;45.60
27567;DHT22;15006;48.584;9.186;2023-03-01T14:13:38;18.20;42.40
27567;DHT22;15006;48.584;9.186;2023-03-01T14:19:34;18.10;42.90
27567;DHT22;15006;48.584;9.186;2023-03-01T14:24:59;18.00;44.30
27567;DHT22;15006;48.584;9.186;2023-03-01T14:27:37;17.90;43.70
27567;DHT22;15006;48.584;9.186;2023-03-01T14:30:46;17.80;43.10
27567;DHT22;15006;48.584;9.186;2023-03-01T14:33:34;17.70;42.60
27567;DHT22;15006;48.584;9.186;2023-03-01T14:36:07;17.70;43.10
27567;DHT22;15006;48.584;9.186;2023-03-01T14:38:39;17.80;43.90
27567;DHT22;15006;48.584;9.186;2023-03-01T14:43:47;17.70;42.40
27567;DHT22;15006;48.584;9.186;2023-03-01T14:46:35;17.60;43.40
27567;DHT22;15006;48.584;9.186;2023-03-01T14:51:51;17.30;41.40
27567;DHT22;15006;48.584;9.186;2023-03-01T14:54:29;17.10;43.30
27567;DHT22;15006;48.584;9.186;2023-03-01T14:57:01;17.00;43.30
27567;DHT22;15006;48.584;9.186;2023-03-01T14:59:28;16.80;44.30
27567;DHT22;15006;48.584;9.186;2023-03-01T15:01:56;16.80;44.80
27567;DHT22;15006;48.584;9.186;2023-03-01T15:04:24;16.70;43.80
27567;DHT22;15006;48.584;9.186;2023-03-01T15:06:53;16.60;44.10
27567;DHT22;15006;48.584;9.186;2023-03-01T15:09:21;16.60;44.00
27567;DHT22;15006;48.584;9.186;2023-03-01T15:11:48;16.60;43.90
27567;DHT22;15006;48.584;9.186;2023-03-01T15:14:42;16.50;43.30
27567;DHT22;15006;48.584;9.186;2023-03-01T15:17:33;16.20;40.20
27567;DHT22;15006;48.584;9.186;2023-03-01T15:20:02;16.00;41.30
27567;DHT22;15006;48.584;9.186;2023-03-01T15:22:31;15.80;43.30
27567;DHT22;15006;48.584;9.186;2023-03-01T15:24:57;15.60;44.00
27567;DHT22;15006;48.584;9.186;2023-03-01T15:27:25;15.40;43.90
27567;DHT22;15006;48.584;9.186;2023-03-01T15:29:58;15.20;43.80
27567;DHT22;15006;48.584;9.186;2023-03-01T15:32:34;14.90;43.60
27567;DHT22;15006;48.584;9.186;2023-03-01T15:35:41;14.50;41.70
27567;DHT22;15006;48.584;9.186;2023-03-01T15:38:49;14.20;42.20
27567;DHT22;15006;48.584;9.186;2023-03-01T15:41:28;13.80;42.70
27567;DHT22;15006;48.584;9.186;2023-03-01T15:44:00;13.60;44.10
27567;DHT22;15006;48.584;9.186;2023-03-01T15:46:39;13.50;46.20
27567;DHT22;15006;48.584;9.186;2023-03-01T15:52:12;13.20;46.40
27567;DHT22;15006;48.584;9.186;2023-03-01T15:54:41;13.00;45.70
27567;DHT22;15006;48.584;9.186;2023-03-01T15:57:13;12.80;46.50
27567;DHT22;15006;48.584;9.186;2023-03-01T15:59:42;12.60;45.00
27567;DHT22;15006;48.584;9.186;2023-03-01T16:02:10;12.50;46.40
27567;DHT22;15006;48.584;9.186;2023-03-01T16:04:38;12.30;46.30
27567;DHT22;15006;48.584;9.186;2023-03-01T16:07:05;12.10;46.80
27567;DHT22;15006;48.584;9.186;2023-03-01T16:09:31;11.90;46.70
27567;DHT22;15006;48.584;9.186;2023-03-01T16:11:57;11.70;46.70
27567;DHT22;15006;48.584;9.186;2023-03-01T16:14:23;11.40;46.70
27567;DHT22;15006;48.584;9.186;2023-03-01T16:16:49;11.20;46.70
27567;DHT22;15006;48.584;9.186;2023-03-01T16:19:16;10.90;47.10
27567;DHT22;15006;48.584;9.186;2023-03-01T16:21:42;10.60;47.40
27567;DHT22;15006;48.584;9.186;2023-03-01T16:24:09;10.40;47.70
27567;DHT22;15006;48.584;9.186;2023-03-01T16:26:36;10.10;47.80
27567;DHT22;15006;48.584;9.186;2023-03-01T16:29:03;9.80;47.70
27567;DHT22;15006;48.584;9.186;2023-03-01T16:31:29;9.50;48.00
27567;DHT22;15006;48.584;9.186;2023-03-01T16:33:57;9.20;48.30
27567;DHT22;15006;48.584;9.186;2023-03-01T16:36:25;8.80;48.50
27567;DHT22;15006;48.584;9.186;2023-03-01T16:38:54;8.50;48.80
27567;DHT22;15006;48.584;9.186;2023-03-01T16:41:22;8.10;49.20
27567;DHT22;15006;48.584;9.186;2023-03-01T16:43:49;7.80;49.60
27567;DHT22;15006;48.584;9.186;2023-03-01T16:46:19;7.40;50.00
27567;DHT22;15006;48.584;9.186;2023-03-01T16:48:48;7.10;50.40
27567;DHT22;15006;48.584;9.186;2023-03-01T16:51:15;6.80;50.90
27567;DHT22;15006;48.584;9.186;2023-03-01T16:53:41;6.50;51.30
27567;DHT22;15006;48.584;9.186;2023-03-01T16:56:10;6.20;51.80
27567;DHT22;15006;48.584;9.186;2023-03-01T16:58:37;5.90;52.10
27567;DHT22;15006;48.584;9.186;2023-03-01T17:01:09;5.70;53.20
27567;DHT22;15006;48.584;9.186;2023-03-01T17:03:38;5.40;52.90
27567;DHT22;15006;48.584;9.186;2023-03-01T17:06:07;5.30;53.50
27567;DHT22;15006;48.584;9.186;2023-03-01T17:08:35;5.00;53.90
27567;DHT22;15006;48.584;9.186;2023-03-01T17:11:10;4.80;54.30
27567;DHT22;15006;48.584;9.186;2023-03-01T17:13:39;4.60;54.70
27567;DHT22;15006;48.584;9.186;2023-03-01T17:16:10;4.40;55.00
27567;DHT22;15006;48.584;9.186;2023-03-01T17:18:38;4.30;55.30
27567;DHT22;15006;48.584;9.186;2023-03-01T17:21:05;4.10;55.70
27567;DHT22;15006;48.584;9.186;2023-03-01T17:23:32;3.90;55.90
27567;DHT22;15006;48.584;9.186;2023-03-01T17:25:59;3.80;56.20
27567;DHT22;15006;48.584;9.186;2023-03-01T17:28:28;3.70;56.50
27567;DHT22;15006;48.584;9.186;2023-03-01T17:30:55;3.50;56.70
27567;DHT22;15006;48.584;9.186;2023-03-01T17:33:21;3.40;57.70
27567;DHT22;15006;48.584;9.186;2023-03-01T17:35:48;3.30;57.20
27567;DHT22;15006;48.584;9.186;2023-03-01T17:38:15;3.20;57.50
27567;DHT22;15006;48.584;9.186;2023-03-01T17:40:42;3.10;57.70
27567;DHT22;15006;48.584;9.186;2023-03-01T17:43:11;3.00;57.90
27567;DHT22;15006;48.584;9.186;2023-03-01T17:45:38;3.00;58.10
27567;DHT22;15006;48.584;9.186;2023-03-01T17:48:07;2.80;58.20
27567;DHT22;15006;48.584;9.186;2023-03-01T17:50:37;2.80;58.30
27567;DHT22;15006;48.584;9.186;2023-03-01T17:53:06;2.80;58.60
27567;DHT22;15006;48.584;9.186;2023-03-01T17:55:36;2.70;58.90
27567;DHT22;15006;48.584;9.186;2023-03-01T17:58:03;2.60;59.00
27567;DHT22;15006;48.584;9.186;2023-03-01T18:00:30;2.60;59.30
27567;DHT22;15006;48.584;9.186;2023-03-01T18:02:56;2.60;59.50
27567;DHT22;15006;48.584;9.186;2023-03-01T18:05:23;2.60;59.60
27567;DHT22;15006;48.584;9.186;2023-03-01T18:07:50;2.60;59.70
27567;DHT22;15006;48.584;9.186;2023-03-01T18:10:18;2.70;59.80
27567;DHT22;15006;48.584;9.186;2023-03-01T18:12:45;2.60;59.80
27567;DHT22;15006;48.584;9.186;2023-03-01T18:15:11;2.60;59.80